createdAt,value
2017-02-19T00:05:45.340Z,0
2017-02-19T00:15:45.274Z,0
2017-02-19T00:26:10.611Z,0
2017-02-19T00:36:11.463Z,0
2017-02-19T00:46:10.657Z,0
2017-02-19T00:56:10.638Z,0
2017-02-19T01:06:10.747Z,0
2017-02-19T01:16:10.664Z,0
2017-02-19T01:26:10.648Z,0
2017-02-19T01:36:10.676Z,0
2017-02-19T01:46:10.707Z,0
2017-02-19T01:56:10.605Z,0
2017-02-19T02:06:10.669Z,0
2017-02-19T02:16:10.610Z,0
2017-02-19T02:26:11.403Z,0
2017-02-19T02:36:10.637Z,0
2017-02-19T02:46:10.638Z,0
2017-02-19T02:56:10.978Z,0
2017-02-19T03:06:10.618Z,0
2017-02-19T03:16:10.620Z,0
2017-02-19T03:26:10.654Z,0
2017-02-19T03:36:10.596Z,0
2017-02-19T03:46:10.673Z,0
2017-02-19T03:56:10.629Z,0
2017-02-19T04:06:10.591Z,0
2017-02-19T04:16:10.687Z,0
2017-02-19T04:26:10.627Z,0
2017-02-19T04:36:10.708Z,0
2017-02-19T04:46:10.629Z,0
2017-02-19T04:56:10.694Z,0
2017-02-19T05:06:10.691Z,0
2017-02-19T05:16:10.709Z,0
2017-02-19T05:26:10.710Z,0
2017-02-19T05:36:10.759Z,0
2017-02-19T05:46:10.739Z,0
2017-02-19T05:56:10.660Z,0
2017-02-19T06:06:10.709Z,4
2017-02-19T06:16:10.719Z,12
2017-02-19T06:26:10.764Z,60
2017-02-19T06:36:10.724Z,148
2017-02-19T06:46:10.778Z,276
2017-02-19T06:56:10.749Z,704
2017-02-19T07:06:10.813Z,1236
2017-02-19T07:16:10.781Z,2208
2017-02-19T07:26:10.839Z,2452
2017-02-19T07:36:10.794Z,2788
2017-02-19T07:46:10.865Z,3432
2017-02-19T07:56:10.835Z,4724
2017-02-19T08:06:10.786Z,3612
2017-02-19T08:16:10.837Z,2700
2017-02-19T08:26:10.847Z,3768
2017-02-19T08:36:10.871Z,4008
2017-02-19T08:46:10.813Z,4216
2017-02-19T08:56:10.896Z,2728
2017-02-19T09:06:10.887Z,3536
2017-02-19T09:16:11.058Z,5120
2017-02-19T09:26:10.893Z,6716
2017-02-19T09:36:18.420Z,5292
2017-02-19T09:46:19.230Z,7936
2017-02-19T09:56:19.231Z,6136
2017-02-19T10:06:10.988Z,6540
2017-02-19T10:16:11.103Z,8420
2017-02-19T10:26:11.537Z,6584
2017-02-19T10:36:11.007Z,6228
2017-02-19T10:46:14.805Z,4808
2017-02-19T10:56:11.969Z,2800
2017-02-19T11:06:12.079Z,2560
2017-02-19T11:16:10.997Z,2492
2017-02-19T11:26:13.314Z,2084
2017-02-19T11:36:11.151Z,2120
2017-02-19T11:46:11.009Z,3076
2017-02-19T11:56:11.076Z,3556
2017-02-19T12:06:11.039Z,2016
2017-02-19T12:16:11.185Z,4208
2017-02-19T12:26:11.031Z,4572
2017-02-19T12:36:11.076Z,3004
2017-02-19T12:46:11.045Z,6060
2017-02-19T12:56:11.067Z,5436
2017-02-19T13:06:11.080Z,3224
2017-02-19T13:16:11.094Z,4312
2017-02-19T13:26:11.086Z,5404
2017-02-19T13:36:11.234Z,5044
2017-02-19T13:46:11.163Z,6088
2017-02-19T13:56:11.113Z,5168
2017-02-19T14:06:11.168Z,4444
2017-02-19T14:16:11.132Z,2212
2017-02-19T14:26:11.173Z,1668
2017-02-19T14:36:11.231Z,1492
2017-02-19T14:46:11.270Z,1676
2017-02-19T14:56:11.305Z,1240
2017-02-19T15:06:11.540Z,1072
2017-02-19T15:16:11.199Z,1340
2017-02-19T15:26:11.306Z,1368
2017-02-19T15:36:11.249Z,1204
2017-02-19T15:46:14.031Z,1048
2017-02-19T15:56:16.725Z,692
2017-02-19T16:06:11.321Z,568
2017-02-19T16:16:22.743Z,532
2017-02-19T16:26:18.090Z,296
2017-02-19T16:36:23.820Z,172
2017-02-19T16:46:18.130Z,80
2017-02-19T16:56:11.289Z,40
2017-02-19T17:06:11.364Z,8
2017-02-19T17:16:19.149Z,4
2017-02-19T17:26:11.366Z,0
2017-02-19T17:36:22.815Z,0
2017-02-19T17:46:13.692Z,0
2017-02-19T17:56:11.270Z,0
2017-02-19T18:06:24.932Z,0
2017-02-19T18:26:21.291Z,0
2017-02-19T18:36:22.445Z,0
2017-02-19T18:46:30.549Z,0
2017-02-19T18:56:33.073Z,0
2017-02-19T20:06:20.735Z,0
2017-02-19T20:36:30.433Z,0
2017-02-19T20:46:41.213Z,0
2017-02-19T21:06:11.577Z,0
2017-02-19T21:16:23.598Z,0
2017-02-19T21:26:11.564Z,0
2017-02-19T21:36:32.105Z,0
2017-02-19T21:46:28.805Z,0
2017-02-19T22:06:11.601Z,0
2017-02-19T22:26:23.657Z,0
2017-02-19T22:46:14.399Z,0
2017-02-19T22:56:11.567Z,0
2017-02-19T23:06:23.904Z,0
2017-02-19T23:16:22.345Z,0
2017-02-19T23:26:16.880Z,0
2017-02-19T23:36:47.593Z,0
2017-02-19T23:46:16.635Z,0
2017-02-19T23:56:23.849Z,0
